CheckWX is a tool to help pilots better visualize weather data.  It is not intended as a substitute for an official pre-flight weather briefing.

21:22:40 UTC

EDGS METAR
Siegerland Airport
Germany
Current

4 hours ago

EDGS 231720Z 11008KT CAVOK 03/M04 Q1037
Observed
Feb-23 @ 17:20 UTC
Wind
  • 110° at 8 KTS
Visibility
10,000+ meters
Flight Rules
VFR
Cloud Levels
  • Clear skies
Temperature
C / 37°F
Dewpoint
-4°C / 25°F
Humidity
60%
Altimeter
30.62" Hg
Pressure
1036.91 hPa
Previous

5 hours ago

EDGS 231650Z 10009KT CAVOK 03/M04 Q1037
Observed
Feb-23 @ 16:50 UTC
Wind
  • 100° at 9 KTS
Visibility
10,000+ meters
Flight Rules
VFR
Cloud Levels
  • Clear skies
Temperature
C / 37°F
Dewpoint
-4°C / 25°F
Humidity
60%
Altimeter
30.62" Hg
Pressure
1036.91 hPa
Previous

5 hours ago

EDGS 231620Z 11009KT CAVOK 04/M04 Q1037
Observed
Feb-23 @ 16:20 UTC
Wind
  • 110° at 9 KTS
Visibility
10,000+ meters
Flight Rules
VFR
Cloud Levels
  • Clear skies
Temperature
C / 39°F
Dewpoint
-4°C / 25°F
Humidity
56%
Altimeter
30.62" Hg
Pressure
1036.91 hPa